createdAt,value
2022-10-07T00:03:30.587Z,18.1
2022-10-07T00:08:30.520Z,15.4
2022-10-07T00:13:30.801Z,15.6
2022-10-07T00:18:30.918Z,13.9
2022-10-07T00:23:30.636Z,12.5
2022-10-07T00:28:30.773Z,13.7
2022-10-07T00:33:30.312Z,13.9
2022-10-07T00:38:30.248Z,14.0
2022-10-07T00:43:30.276Z,13.3
2022-10-07T00:48:30.459Z,12.9
2022-10-07T00:53:30.302Z,14.3
2022-10-07T00:58:30.241Z,14.0
2022-10-07T01:03:30.334Z,13.4
2022-10-07T01:08:30.218Z,13.4
2022-10-07T01:13:30.187Z,13.4
2022-10-07T01:18:30.479Z,12.7
2022-10-07T01:23:30.157Z,12.5
2022-10-07T01:28:30.233Z,13.1
2022-10-07T01:33:30.669Z,13.5
2022-10-07T01:38:30.232Z,14.9
2022-10-07T01:43:30.127Z,9.5
2022-10-07T01:48:30.837Z,10.3
2022-10-07T01:53:30.037Z,12.6
2022-10-07T01:58:30.092Z,15.2
2022-10-07T02:03:30.297Z,13.6
2022-10-07T02:08:30.109Z,13.3
2022-10-07T02:13:30.268Z,14.4
2022-10-07T02:18:32.273Z,15.1
2022-10-07T02:23:30.079Z,15.9
2022-10-07T02:28:30.204Z,15.5
2022-10-07T02:33:30.196Z,13.4
2022-10-07T02:38:30.133Z,12.7
2022-10-07T02:43:30.078Z,12.3
2022-10-07T02:48:30.347Z,11.5
2022-10-07T02:53:30.116Z,10.8
2022-10-07T02:58:30.015Z,10.6
2022-10-07T03:03:30.289Z,11.3
2022-10-07T03:08:30.249Z,10.7
2022-10-07T03:13:30.032Z,11.7
2022-10-07T03:18:29.974Z,14.1
2022-10-07T03:23:29.894Z,12.2
2022-10-07T03:28:30.083Z,12.1
2022-10-07T03:33:30.073Z,11.8
2022-10-07T03:38:29.908Z,11.5
2022-10-07T03:43:29.839Z,12.7
2022-10-07T03:48:30.249Z,12.1
2022-10-07T03:53:30.980Z,12.0
2022-10-07T03:58:29.825Z,13.5
2022-10-07T04:03:29.878Z,12.0
2022-10-07T04:08:30.627Z,12.3
2022-10-07T04:13:29.893Z,13.3
2022-10-07T04:18:30.051Z,12.9
2022-10-07T04:23:29.785Z,11.4
2022-10-07T04:28:29.987Z,12.9
2022-10-07T04:33:30.125Z,11.7
2022-10-07T04:38:29.941Z,12.1
2022-10-07T04:43:29.745Z,11.1
2022-10-07T04:48:29.784Z,10.9
2022-10-07T04:53:29.787Z,11.1
2022-10-07T04:58:29.714Z,10.0
2022-10-07T05:03:29.958Z,11.1
2022-10-07T05:08:29.827Z,10.7
2022-10-07T05:13:29.712Z,10.2
2022-10-07T05:18:29.960Z,11.3
2022-10-07T05:23:29.764Z,10.5
2022-10-07T05:28:29.816Z,13.0
2022-10-07T05:33:30.029Z,14.1
2022-10-07T05:38:29.686Z,14.1
2022-10-07T05:43:29.703Z,15.8
2022-10-07T05:48:29.902Z,16.7
2022-10-07T05:53:29.810Z,15.7
2022-10-07T05:58:29.689Z,13.5
2022-10-07T06:03:29.900Z,12.8
2022-10-07T06:08:29.699Z,12.0
2022-10-07T06:13:29.639Z,12.3
2022-10-07T06:18:30.596Z,11.7
2022-10-07T06:23:29.742Z,11.5
2022-10-07T06:28:30.065Z,18.2
2022-10-07T06:33:29.906Z,18.6
2022-10-07T06:38:29.576Z,16.1
2022-10-07T06:43:29.656Z,15.5
2022-10-07T06:48:29.849Z,15.6
2022-10-07T06:53:29.735Z,15.3
2022-10-07T06:58:29.651Z,10.2
2022-10-07T07:03:29.966Z,8.1
2022-10-07T07:08:29.707Z,10.4
2022-10-07T07:13:29.539Z,9.1
2022-10-07T07:18:29.475Z,9.0
2022-10-07T07:23:29.525Z,10.9
2022-10-07T07:28:29.690Z,34.3
2022-10-07T07:33:29.814Z,10.0
2022-10-07T07:38:29.458Z,9.7
2022-10-07T07:43:29.731Z,14.5
2022-10-07T07:48:29.814Z,5.4
2022-10-07T07:53:29.611Z,4.4
2022-10-07T07:58:30.466Z,3.8
2022-10-07T08:03:29.508Z,4.3
2022-10-07T08:08:29.478Z,4.2
2022-10-07T08:13:29.636Z,8.0
2022-10-07T08:18:29.462Z,5.8
2022-10-07T08:23:29.722Z,5.8
2022-10-07T08:28:29.665Z,8.5
2022-10-07T08:33:29.918Z,8.5
2022-10-07T08:38:29.667Z,9.9
2022-10-07T08:43:29.489Z,10.9
2022-10-07T08:48:30.720Z,11.9
2022-10-07T08:53:29.537Z,12.8
2022-10-07T08:58:29.422Z,11.1
2022-10-07T09:03:29.364Z,10.1
2022-10-07T09:08:29.354Z,9.5
2022-10-07T09:13:29.347Z,9.7
2022-10-07T09:18:29.602Z,9.2
2022-10-07T09:23:29.320Z,9.8
2022-10-07T09:28:29.355Z,9.8
2022-10-07T09:33:29.458Z,13.7
2022-10-07T09:38:29.408Z,8.7
2022-10-07T09:43:29.344Z,8.7
2022-10-07T09:48:29.484Z,7.9
2022-10-07T09:53:29.253Z,8.2
2022-10-07T09:58:29.388Z,8.6
2022-10-07T10:03:29.461Z,8.5
2022-10-07T10:08:29.290Z,8.7
2022-10-07T10:13:29.281Z,8.4
2022-10-07T10:18:29.433Z,6.9
2022-10-07T10:23:29.328Z,6.7
2022-10-07T10:28:29.380Z,5.9
2022-10-07T10:33:33.795Z,7.1
2022-10-07T10:38:29.272Z,7.5
2022-10-07T10:43:29.180Z,5.7
2022-10-07T10:48:29.342Z,6.2
2022-10-07T10:53:29.286Z,5.4
2022-10-07T10:58:29.223Z,5.7
2022-10-07T11:03:29.341Z,5.2
2022-10-07T11:08:29.172Z,5.2
2022-10-07T11:13:29.748Z,4.6
2022-10-07T11:18:29.395Z,4.8
2022-10-07T11:23:29.189Z,4.0
2022-10-07T11:28:29.172Z,3.3
2022-10-07T11:33:29.248Z,3.3
2022-10-07T11:38:29.135Z,2.9
2022-10-07T11:43:29.155Z,2.9
2022-10-07T11:48:29.737Z,2.7
2022-10-07T11:53:29.230Z,2.4
2022-10-07T11:58:29.373Z,3.1
2022-10-07T12:03:29.425Z,2.9
2022-10-07T12:08:29.243Z,2.4
2022-10-07T12:13:29.106Z,3.1
2022-10-07T12:18:30.473Z,2.9
2022-10-07T12:23:29.405Z,2.8
2022-10-07T12:28:29.288Z,2.9
2022-10-07T12:33:29.077Z,3.0
2022-10-07T12:38:29.334Z,2.8
2022-10-07T12:43:29.361Z,3.3
2022-10-07T12:48:29.137Z,4.0
2022-10-07T12:53:29.355Z,3.1
2022-10-07T12:58:29.038Z,3.2
2022-10-07T13:03:29.456Z,3.7
2022-10-07T13:08:29.064Z,3.5
2022-10-07T13:13:29.832Z,4.7
2022-10-07T13:18:29.289Z,3.3
2022-10-07T13:23:29.092Z,3.9
2022-10-07T13:28:30.223Z,3.2
2022-10-07T13:33:28.942Z,3.7
2022-10-07T13:38:29.142Z,4.2
2022-10-07T13:43:29.174Z,3.3
2022-10-07T13:48:28.916Z,3.4
2022-10-07T13:53:28.976Z,4.2
2022-10-07T13:58:29.114Z,3.4
2022-10-07T14:03:29.043Z,3.5
2022-10-07T14:08:29.002Z,3.1
2022-10-07T14:13:28.949Z,3.4
2022-10-07T14:18:29.016Z,3.2
2022-10-07T14:23:29.060Z,3.3
2022-10-07T14:28:29.221Z,3.3
2022-10-07T14:33:28.970Z,3.0
2022-10-07T14:38:28.989Z,3.4
2022-10-07T14:43:28.815Z,3.8
2022-10-07T14:48:28.978Z,3.5
2022-10-07T14:53:28.990Z,3.3
2022-10-07T14:58:29.172Z,3.3
2022-10-07T15:03:28.858Z,3.4
2022-10-07T15:08:28.860Z,3.4
2022-10-07T15:13:29.671Z,3.6
2022-10-07T15:18:29.254Z,3.6
2022-10-07T15:23:29.112Z,5.0
2022-10-07T15:28:29.067Z,5.0
2022-10-07T15:33:28.948Z,7.4
2022-10-07T15:38:28.883Z,4.9
2022-10-07T15:43:28.923Z,4.2
2022-10-07T15:48:28.833Z,19.5
2022-10-07T15:53:28.747Z,23.2
2022-10-07T15:58:28.765Z,32.6
2022-10-07T16:03:28.783Z,5.9
2022-10-07T16:08:28.876Z,5.2
2022-10-07T16:13:28.748Z,6.2
2022-10-07T16:18:28.774Z,7.3
2022-10-07T16:23:28.977Z,6.2
2022-10-07T16:28:28.863Z,9.2
2022-10-07T16:33:28.830Z,10.9
2022-10-07T16:38:28.979Z,11.6
2022-10-07T16:43:28.855Z,14.8
2022-10-07T16:48:28.776Z,14.8
2022-10-07T16:53:28.713Z,15.4
2022-10-07T16:58:28.692Z,16.8
2022-10-07T17:03:28.746Z,19.5
2022-10-07T17:08:29.012Z,11.2
2022-10-07T17:13:28.774Z,9.7
2022-10-07T17:18:28.662Z,11.1
2022-10-07T17:23:29.020Z,14.4
2022-10-07T17:28:28.899Z,10.7
2022-10-07T17:33:28.809Z,14.5
2022-10-07T17:38:28.913Z,24.6
2022-10-07T17:43:28.708Z,22.9
2022-10-07T17:48:29.043Z,37.3
2022-10-07T17:53:28.562Z,34.5
2022-10-07T17:58:29.149Z,26.7
2022-10-07T18:03:28.806Z,30.1
2022-10-07T18:08:28.603Z,36.7
2022-10-07T18:13:30.294Z,35.4
2022-10-07T18:18:31.882Z,69.5
2022-10-07T18:23:29.047Z,54.4
2022-10-07T18:28:29.005Z,32.9
2022-10-07T18:33:29.410Z,28.7
2022-10-07T18:38:28.613Z,106.1
2022-10-07T18:43:29.713Z,45.6
2022-10-07T18:48:29.852Z,85.0
2022-10-07T18:53:28.649Z,69.7
2022-10-07T18:58:29.365Z,15.0
2022-10-07T19:03:28.524Z,15.0
2022-10-07T19:13:28.961Z,14.2
2022-10-07T19:18:28.498Z,15.3
2022-10-07T19:23:28.961Z,15.1
2022-10-07T19:28:28.521Z,14.5
2022-10-07T19:33:28.604Z,16.8
2022-10-07T19:38:28.596Z,14.8
2022-10-07T19:43:28.619Z,15.1
2022-10-07T19:48:28.453Z,17.1
2022-10-07T19:53:28.381Z,16.4
2022-10-07T19:58:28.416Z,16.5
2022-10-07T20:03:28.546Z,16.8
2022-10-07T20:08:28.529Z,15.8
2022-10-07T20:13:28.380Z,16.5
2022-10-07T20:18:28.329Z,16.6
2022-10-07T20:23:28.486Z,18.8
2022-10-07T20:28:28.475Z,18.5
2022-10-07T20:33:28.453Z,20.5
2022-10-07T20:38:28.626Z,21.2
2022-10-07T20:43:28.609Z,25.8
2022-10-07T20:48:28.433Z,26.0
2022-10-07T20:53:28.306Z,23.5
2022-10-07T20:58:28.274Z,25.3
2022-10-07T21:03:28.302Z,24.7
2022-10-07T21:08:28.553Z,25.4
2022-10-07T21:13:28.298Z,25.3
2022-10-07T21:18:28.277Z,25.4
2022-10-07T21:23:28.347Z,25.7
2022-10-07T21:28:28.426Z,25.5
2022-10-07T21:33:28.359Z,26.2
2022-10-07T21:38:28.148Z,26.0
2022-10-07T21:43:28.238Z,27.2
2022-10-07T21:48:28.207Z,26.3
2022-10-07T21:53:28.385Z,25.9
2022-10-07T21:58:28.151Z,29.3
2022-10-07T22:03:28.206Z,28.1
2022-10-07T22:08:28.514Z,28.3
2022-10-07T22:13:28.400Z,29.5
2022-10-07T22:18:28.180Z,29.2
2022-10-07T22:23:28.129Z,29.0
2022-10-07T22:28:28.763Z,31.1
2022-10-07T22:33:28.231Z,33.5
2022-10-07T22:38:28.294Z,34.0
2022-10-07T22:43:28.228Z,30.7
2022-10-07T22:48:28.385Z,31.0
2022-10-07T22:53:28.065Z,32.0
2022-10-07T22:58:28.080Z,28.7
2022-10-07T23:03:28.308Z,26.3
2022-10-07T23:08:29.883Z,27.1
2022-10-07T23:13:28.026Z,24.5
2022-10-07T23:18:28.094Z,26.7
2022-10-07T23:23:28.315Z,27.5
2022-10-07T23:28:28.216Z,29.2
2022-10-07T23:33:27.942Z,30.3
2022-10-07T23:38:28.278Z,27.7
2022-10-07T23:43:28.079Z,27.2
2022-10-07T23:48:29.072Z,28.4
2022-10-07T23:53:27.976Z,29.4
2022-10-07T23:58:28.015Z,27.6
